createdAt,value
2023-04-08T00:00:59.800Z,4.99
2023-04-08T00:04:03.329Z,5.04
2023-04-08T00:07:06.223Z,4.99
2023-04-08T00:10:09.333Z,5.04
2023-04-08T00:13:13.330Z,5.12
2023-04-08T00:16:16.274Z,5.23
2023-04-08T00:19:18.914Z,5.07
2023-04-08T00:22:22.351Z,5.10
2023-04-08T00:25:25.685Z,5.03
2023-04-08T00:28:28.958Z,5.04
2023-04-08T00:31:31.799Z,5.12
2023-04-08T00:34:34.559Z,5.11
2023-04-08T00:37:37.282Z,5.08
2023-04-08T00:40:41.265Z,5.15
2023-04-08T00:43:43.880Z,5.11
2023-04-08T00:46:47.502Z,5.03
2023-04-08T00:49:50.929Z,5.12
2023-04-08T00:52:53.713Z,5.00
2023-04-08T00:55:56.299Z,5.16
2023-04-08T00:59:00.786Z,5.08
2023-04-08T01:02:26.901Z,5.12
2023-04-08T01:05:57.128Z,5.09
2023-04-08T01:09:00.852Z,5.02
2023-04-08T01:12:08.540Z,5.08
2023-04-08T01:15:12.148Z,5.08
2023-04-08T01:18:16.484Z,5.16
2023-04-08T01:21:20.921Z,4.99
2023-04-08T01:24:28.331Z,5.11
2023-04-08T01:27:33.404Z,5.13
2023-04-08T01:30:39.102Z,5.14
2023-04-08T01:33:42.025Z,5.11
2023-04-08T01:36:45.623Z,5.11
2023-04-08T01:39:50.285Z,4.99
2023-04-08T01:42:57.176Z,4.97
2023-04-08T01:46:00.444Z,5.13
2023-04-08T01:49:04.094Z,5.01
2023-04-08T01:52:06.938Z,4.97
2023-04-08T01:55:09.813Z,4.90
2023-04-08T01:58:18.398Z,5.01
2023-04-08T02:01:23.134Z,5.02
2023-04-08T02:04:26.107Z,4.96
2023-04-08T02:07:28.638Z,4.97
2023-04-08T02:10:33.436Z,4.92
2023-04-08T02:13:36.115Z,4.88
2023-04-08T02:16:51.554Z,5.00
2023-04-08T02:19:58.842Z,4.99
2023-04-08T02:23:16.494Z,4.94
2023-04-08T02:26:19.483Z,4.88
2023-04-08T02:29:24.095Z,4.81
2023-04-08T02:32:31.079Z,4.76
2023-04-08T02:35:34.843Z,4.87
2023-04-08T02:38:37.540Z,4.72
2023-04-08T02:41:40.576Z,4.75
2023-04-08T02:44:43.486Z,4.77
2023-04-08T02:47:46.610Z,4.84
2023-04-08T02:50:49.309Z,4.79
2023-04-08T02:53:52.187Z,4.80
2023-04-08T02:56:54.784Z,4.74
2023-04-08T02:59:57.705Z,4.83
2023-04-08T03:03:01.091Z,4.80
2023-04-08T03:06:04.023Z,4.89
2023-04-08T03:09:07.186Z,4.64
2023-04-08T03:12:10.260Z,4.66
2023-04-08T03:15:12.844Z,4.67
2023-04-08T03:18:15.715Z,4.74
2023-04-08T03:21:18.558Z,4.80
2023-04-08T03:24:21.344Z,4.68
2023-04-08T03:27:24.337Z,4.70
2023-04-08T03:30:27.477Z,4.60
2023-04-08T03:33:30.336Z,4.77
2023-04-08T03:36:33.305Z,4.57
2023-04-08T03:39:36.018Z,4.61
2023-04-08T03:42:39.089Z,4.73
2023-04-08T03:45:41.644Z,4.52
2023-04-08T03:48:44.455Z,4.53
2023-04-08T03:51:47.699Z,4.63
2023-04-08T03:54:50.936Z,4.51
2023-04-08T03:57:53.475Z,4.56
2023-04-08T04:00:56.453Z,4.50
2023-04-08T04:03:59.549Z,4.50
2023-04-08T04:07:02.232Z,4.62
2023-04-08T04:10:05.946Z,4.51
2023-04-08T04:13:10.480Z,4.58
2023-04-08T04:16:13.478Z,4.53
2023-04-08T04:19:17.853Z,4.48
2023-04-08T04:22:20.783Z,4.55
2023-04-08T04:25:23.655Z,4.54
2023-04-08T04:28:26.520Z,4.48
2023-04-08T04:31:29.593Z,4.52
2023-04-08T04:34:32.588Z,4.53
2023-04-08T04:37:35.252Z,4.60
2023-04-08T04:40:40.692Z,4.51
2023-04-08T04:43:43.442Z,4.53
2023-04-08T04:46:46.572Z,4.53
2023-04-08T04:49:49.452Z,4.61
2023-04-08T04:52:52.331Z,4.70
2023-04-08T04:55:56.034Z,4.59
2023-04-08T04:58:58.996Z,4.54
2023-04-08T05:02:01.771Z,4.59
2023-04-08T05:05:05.118Z,4.59
2023-04-08T05:08:08.308Z,4.73
2023-04-08T05:11:11.786Z,4.75
2023-04-08T05:14:14.433Z,4.75
2023-04-08T05:17:17.264Z,4.84
2023-04-08T05:20:19.918Z,4.69
2023-04-08T05:23:22.746Z,4.69
2023-04-08T05:26:25.272Z,4.65
2023-04-08T05:29:28.335Z,4.85
2023-04-08T05:32:31.052Z,4.78
2023-04-08T05:35:33.871Z,4.67
2023-04-08T05:38:36.708Z,4.68
2023-04-08T05:41:39.534Z,4.65
2023-04-08T05:44:43.935Z,4.77
2023-04-08T05:47:46.891Z,4.76
2023-04-08T05:50:49.639Z,4.74
2023-04-08T05:53:52.424Z,4.77
2023-04-08T05:56:54.994Z,4.78
2023-04-08T05:59:57.969Z,4.83
2023-04-08T06:03:21.147Z,4.81
2023-04-08T06:06:26.191Z,4.77
2023-04-08T06:09:28.862Z,4.85
2023-04-08T06:12:32.247Z,4.82
2023-04-08T06:15:34.749Z,4.85
2023-04-08T06:18:37.871Z,4.87
2023-04-08T06:21:40.541Z,4.92
2023-04-08T06:24:43.377Z,4.92
2023-04-08T06:27:45.979Z,4.96
2023-04-08T06:30:48.868Z,5.09
2023-04-08T06:33:52.485Z,5.08
2023-04-08T06:36:55.321Z,5.02
2023-04-08T06:39:57.987Z,5.06
2023-04-08T06:43:02.136Z,5.05
2023-04-08T06:46:05.273Z,5.15
2023-04-08T06:49:08.345Z,5.07
2023-04-08T06:52:11.778Z,5.09
2023-04-08T06:55:16.144Z,5.05
2023-04-08T06:58:18.876Z,5.05
2023-04-08T07:01:21.739Z,5.02
2023-04-08T07:04:24.389Z,5.10
2023-04-08T07:07:27.231Z,4.99
2023-04-08T07:10:30.700Z,4.93
2023-04-08T07:13:33.722Z,4.87
2023-04-08T07:16:36.332Z,5.00
2023-04-08T07:19:39.221Z,4.86
2023-04-08T07:22:41.926Z,4.95
2023-04-08T07:25:45.686Z,5.10
2023-04-08T07:28:48.385Z,5.13
2023-04-08T07:31:51.811Z,5.14
2023-04-08T07:34:54.347Z,5.09
2023-04-08T07:37:57.796Z,5.22
2023-04-08T07:41:00.802Z,5.18
2023-04-08T07:44:03.831Z,5.18
2023-04-08T07:47:06.533Z,5.27
2023-04-08T07:50:09.945Z,5.27
2023-04-08T07:53:13.744Z,5.42
2023-04-08T07:56:18.361Z,5.26
2023-04-08T07:59:21.338Z,5.48
2023-04-08T08:02:24.491Z,5.29
2023-04-08T08:05:27.537Z,5.39
2023-04-08T08:08:30.237Z,5.25
2023-04-08T08:11:33.417Z,5.25
2023-04-08T08:14:36.196Z,5.30
2023-04-08T08:17:39.084Z,5.31
2023-04-08T08:20:42.709Z,5.29
2023-04-08T08:23:46.327Z,5.35
2023-04-08T08:26:49.438Z,5.25
2023-04-08T08:29:52.732Z,5.29
2023-04-08T08:32:56.488Z,5.31
2023-04-08T08:36:00.179Z,5.42
2023-04-08T08:39:04.354Z,5.56
2023-04-08T08:42:22.286Z,5.42
2023-04-08T08:45:24.962Z,5.42
2023-04-08T08:48:27.809Z,5.48
2023-04-08T08:51:30.448Z,5.43
2023-04-08T08:54:33.566Z,5.54
2023-04-08T08:57:36.356Z,5.61
2023-04-08T09:00:45.086Z,5.63
2023-04-08T09:03:47.898Z,5.62
2023-04-08T09:07:11.234Z,5.59
2023-04-08T09:10:13.826Z,5.79
2023-04-08T09:13:17.477Z,5.85
2023-04-08T09:16:20.343Z,5.81
2023-04-08T09:19:24.031Z,5.91
2023-04-08T09:22:26.953Z,5.86
2023-04-08T09:25:32.501Z,5.86
2023-04-08T09:28:35.247Z,5.96
2023-04-08T09:31:42.782Z,5.98
2023-04-08T09:34:46.022Z,6.02
2023-04-08T09:37:49.765Z,6.06
2023-04-08T09:40:52.500Z,5.99
2023-04-08T09:43:56.637Z,6.05
2023-04-08T09:47:09.082Z,6.12
2023-04-08T09:50:12.120Z,6.08
2023-04-08T09:53:23.163Z,6.25
2023-04-08T09:56:27.601Z,6.20
2023-04-08T09:59:33.956Z,6.18
2023-04-08T10:02:44.792Z,6.18
2023-04-08T10:05:48.889Z,6.10
2023-04-08T10:08:51.541Z,6.13
2023-04-08T10:11:55.447Z,6.27
2023-04-08T10:15:25.865Z,6.20
2023-04-08T10:18:32.852Z,6.18
2023-04-08T10:21:37.718Z,6.33
2023-04-08T10:24:42.019Z,6.11
2023-04-08T10:27:45.486Z,6.17
2023-04-08T10:30:49.511Z,6.17
2023-04-08T10:33:53.165Z,6.19
2023-04-08T10:36:58.869Z,6.21
2023-04-08T10:40:01.634Z,6.33
2023-04-08T10:43:06.081Z,6.28
2023-04-08T10:46:10.783Z,6.34
2023-04-08T10:49:14.298Z,6.27
2023-04-08T10:52:16.788Z,6.44
2023-04-08T10:55:26.952Z,6.38
2023-04-08T10:58:30.471Z,6.61
2023-04-08T11:01:41.036Z,6.60
2023-04-08T11:04:44.639Z,6.63
2023-04-08T11:07:47.521Z,6.74
2023-04-08T11:10:51.711Z,6.76
2023-04-08T11:13:57.189Z,6.78
2023-04-08T11:17:01.585Z,6.77
2023-04-08T11:20:06.336Z,6.79
2023-04-08T11:23:15.351Z,6.92
2023-04-08T11:26:19.646Z,6.89
2023-04-08T11:29:22.362Z,6.94
2023-04-08T11:32:25.549Z,7.03
2023-04-08T11:35:31.478Z,7.04
2023-04-08T11:38:39.233Z,7.09
2023-04-08T11:41:42.124Z,7.07
2023-04-08T11:44:46.919Z,7.11
2023-04-08T11:47:49.746Z,6.92
2023-04-08T11:51:09.154Z,6.94
2023-04-08T11:54:30.717Z,6.96
2023-04-08T11:57:33.574Z,6.95
2023-04-08T12:00:37.501Z,7.03
2023-04-08T12:03:54.323Z,6.95
2023-04-08T12:06:58.274Z,7.05
2023-04-08T12:10:01.709Z,7.03
2023-04-08T12:13:05.277Z,7.02
2023-04-08T12:16:08.431Z,6.99
2023-04-08T12:19:12.191Z,6.96
2023-04-08T12:22:16.447Z,6.97
2023-04-08T12:25:19.091Z,6.96
2023-04-08T12:28:22.402Z,7.05
2023-04-08T16:57:18.536Z,6.94
2023-04-08T17:00:22.672Z,6.75
2023-04-08T17:03:27.217Z,6.73
2023-04-08T17:06:31.304Z,6.83
2023-04-08T17:09:34.145Z,6.64
2023-04-08T17:12:37.266Z,6.60
2023-04-08T17:15:39.846Z,6.61
2023-04-08T17:18:43.666Z,6.81
2023-04-08T17:21:46.510Z,6.61
2023-04-08T17:24:49.448Z,6.66
2023-04-08T17:27:52.243Z,6.48
2023-04-08T17:30:55.217Z,6.49
2023-04-08T17:33:57.801Z,6.45
2023-04-08T17:37:00.783Z,6.47
2023-04-08T17:40:03.506Z,6.48
2023-04-08T17:43:06.714Z,6.47
2023-04-08T17:46:09.398Z,6.47
2023-04-08T17:49:14.217Z,6.43
2023-04-08T17:52:17.035Z,6.40
2023-04-08T17:55:19.883Z,6.35
2023-04-08T17:58:23.266Z,6.34
2023-04-08T18:01:26.450Z,6.34
2023-04-08T18:04:30.112Z,6.30
2023-04-08T18:07:32.777Z,6.28
2023-04-08T18:10:37.057Z,6.20
2023-04-08T18:13:39.628Z,6.17
2023-04-08T18:16:42.690Z,6.13
2023-04-08T18:19:46.103Z,6.12
2023-04-08T18:22:48.998Z,6.13
2023-04-08T18:25:51.548Z,6.06
2023-04-08T18:28:54.517Z,6.01
2023-04-08T18:31:57.212Z,6.01
2023-04-08T18:35:01.056Z,5.99
2023-04-08T18:38:03.682Z,5.95
2023-04-08T18:41:08.774Z,5.89
2023-04-08T18:44:11.304Z,5.86
2023-04-08T18:47:14.248Z,5.96
2023-04-08T18:50:18.422Z,5.96
2023-04-08T18:53:22.727Z,5.85
2023-04-08T18:56:25.411Z,5.79
2023-04-08T18:59:28.684Z,5.82
2023-04-08T19:02:32.048Z,5.86
2023-04-08T19:05:38.578Z,5.78
2023-04-08T19:08:41.614Z,5.77
2023-04-08T19:11:44.472Z,5.70
2023-04-08T19:14:47.137Z,5.67
2023-04-08T19:17:50.269Z,5.75
2023-04-08T19:20:53.154Z,5.71
2023-04-08T19:23:57.160Z,5.70
2023-04-08T19:27:00.477Z,5.68
2023-04-08T19:30:03.732Z,5.67
2023-04-08T19:33:10.704Z,5.63
2023-04-08T19:36:14.082Z,5.62
2023-04-08T19:39:17.049Z,5.65
2023-04-08T19:42:20.405Z,5.68
2023-04-08T19:45:23.011Z,5.67
2023-04-08T19:48:26.193Z,5.62
2023-04-08T19:51:29.366Z,5.66
2023-04-08T19:54:32.349Z,5.60
2023-04-08T19:57:35.688Z,5.59
2023-04-08T20:00:39.426Z,5.61
2023-04-08T20:03:43.384Z,5.66
2023-04-08T20:06:46.115Z,5.58
2023-04-08T20:09:49.018Z,5.56
2023-04-08T20:12:52.944Z,5.56
2023-04-08T20:15:56.780Z,5.60
2023-04-08T20:18:59.330Z,5.57
2023-04-08T20:22:03.293Z,5.56
2023-04-08T20:25:06.319Z,5.49
2023-04-08T20:28:09.710Z,5.49
2023-04-08T20:31:13.294Z,5.51
2023-04-08T20:34:16.534Z,5.50
2023-04-08T20:37:19.737Z,5.46
2023-04-08T20:40:22.846Z,5.48
2023-04-08T20:43:25.444Z,5.49
2023-04-08T20:46:29.479Z,5.49
2023-04-08T20:49:32.097Z,5.46
2023-04-08T20:52:35.263Z,5.48
2023-04-08T20:55:37.771Z,5.41
2023-04-08T20:58:40.720Z,5.43
2023-04-08T21:01:43.597Z,5.47
2023-04-08T21:04:47.481Z,5.44
2023-04-08T21:07:50.142Z,5.43
2023-04-08T21:10:54.318Z,5.44
2023-04-08T21:13:56.966Z,5.45
2023-04-08T21:16:59.789Z,5.41
2023-04-08T21:20:02.828Z,5.41
2023-04-08T21:23:07.481Z,5.35
2023-04-08T21:26:13.724Z,5.37
2023-04-08T21:29:17.342Z,5.35
2023-04-08T21:32:19.993Z,5.36
2023-04-08T21:35:23.903Z,5.33
2023-04-08T21:38:26.544Z,5.29
2023-04-08T21:41:30.583Z,5.27
2023-04-08T21:44:33.359Z,5.19
2023-04-08T21:47:36.234Z,5.17
2023-04-08T21:50:39.057Z,5.17
2023-04-08T21:53:42.035Z,5.17
2023-04-08T21:56:44.545Z,5.16
2023-04-08T21:59:48.445Z,5.16
2023-04-08T22:02:51.256Z,5.12
2023-04-08T22:05:54.257Z,5.15
2023-04-08T22:08:56.956Z,5.14
2023-04-08T22:11:59.997Z,5.16
2023-04-08T22:15:03.008Z,5.18
2023-04-08T22:18:06.023Z,5.18
2023-04-08T22:21:08.973Z,5.19
2023-04-08T22:24:12.009Z,5.19
2023-04-08T22:27:14.592Z,5.23
2023-04-08T22:30:17.450Z,5.24
2023-04-08T22:33:20.051Z,5.21
2023-04-08T22:36:22.934Z,5.14
2023-04-08T22:39:26.831Z,5.11
2023-04-08T22:42:30.062Z,5.14
2023-04-08T22:45:32.641Z,5.15
2023-04-08T22:48:35.553Z,5.07
2023-04-08T22:51:38.510Z,5.04
2023-04-08T22:54:41.361Z,5.02
2023-04-08T22:57:43.892Z,4.99
2023-04-08T23:00:47.195Z,4.99
2023-04-08T23:03:49.978Z,4.99
2023-04-08T23:06:52.910Z,4.92
2023-04-08T23:09:56.006Z,4.99
2023-04-08T23:12:58.880Z,4.96
2023-04-08T23:16:01.535Z,4.89
2023-04-08T23:19:04.561Z,4.89
2023-04-08T23:22:07.454Z,4.89
2023-04-08T23:25:10.589Z,4.88
2023-04-08T23:28:13.467Z,4.84
2023-04-08T23:31:16.976Z,4.80
2023-04-08T23:34:19.687Z,4.82
2023-04-08T23:37:24.670Z,4.77
2023-04-08T23:40:27.340Z,4.79
2023-04-08T23:43:30.302Z,4.76
2023-04-08T23:46:33.011Z,4.77
2023-04-08T23:49:36.203Z,4.77
2023-04-08T23:52:38.986Z,4.70
2023-04-08T23:55:42.292Z,4.70
2023-04-08T23:58:45.016Z,4.62
